• Join FlightAware (Why Join?)
  • Login
  • US Flag 
10:42AM EDT


 

Airport Tracker/Info


-or-


 

Live Flight TrackerFlight Track Log ✈ TAM3375 ✈ 16-Jul-2013 ✈ SBVT / VIX - SBGR / GRU

Flight Track Log - Related Links

Times and Time Zones

All times are in EDT time to prevent confusion due to time zone crossing. See the TAM3375 flight status page for this flight to view local times or setup timezone preferences in your user account.

Time Position Orientation Groundspeed Altitude Reporting Facility
EDT Latitude Longitude Course Direction KTS MPH feet Rate Location/Type
05:53PM -21.3677 -42.3674 240° Southwest  Level Estimated
05:54PM -21.4055 -42.4397 241° Southwest  Level Estimated
05:55PM -21.4433 -42.5121 241° Southwest  Level Estimated
05:56PM -21.4811 -42.5844 241° Southwest  Level Estimated
05:57PM -21.5188 -42.6568 241° Southwest  Level Estimated
05:58PM -21.5565 -42.7293 241° Southwest  Level Estimated
05:59PM -21.5941 -42.8018 241° Southwest  Level Estimated
06:00PM -21.6317 -42.8744 241° Southwest  Level Estimated
06:01PM -21.6693 -42.9469 241° Southwest  Level Estimated
06:02PM -21.7069 -43.0195 241° Southwest  Level Estimated
06:03PM -21.7444 -43.0922 241° Southwest  Level Estimated
06:04PM -21.7819 -43.1649 241° Southwest  Level Estimated
06:05PM -21.8194 -43.2376 241° Southwest  Level Estimated
06:06PM -21.8568 -43.3103 241° Southwest  Level Estimated
06:07PM -21.8942 -43.3831 241° Southwest  Level Estimated
06:08PM -21.9316 -43.4560 241° Southwest  Level Estimated
06:09PM -21.9689 -43.5289 241° Southwest  Level Estimated
06:10PM -22.0062 -43.6018 241° Southwest  Level Estimated
06:11PM -22.0435 -43.6747 241° Southwest  Level Estimated
06:12PM -22.0807 -43.7477 241° Southwest  Level Estimated
06:13PM -22.1180 -43.8208 241° Southwest  Level Estimated
06:14PM -22.1551 -43.8938 241° Southwest  Level Estimated
06:15PM -22.1923 -43.9669 241° Southwest  Level Estimated
06:16PM -22.2294 -44.0401 241° Southwest  Level Estimated
06:17PM -22.2665 -44.1133 241° Southwest  Level Estimated
06:18PM -22.3035 -44.1865 241° Southwest  Level Estimated
06:19PM -22.3405 -44.2598 241° Southwest  Level Estimated
06:20PM -22.3775 -44.3331 241° Southwest  Level Estimated
06:21PM -22.4144 -44.4064 241° Southwest  Level Estimated
06:22PM -22.4514 -44.4798 241° Southwest  Level Estimated
06:23PM -22.4882 -44.5532 241° Southwest  Level Estimated
06:24PM -22.5251 -44.6267 241° Southwest  Level Estimated
06:25PM -22.5619 -44.7002 242° Southwest  Level Estimated
06:26PM -22.5987 -44.7737 242° Southwest  Level Estimated
06:27PM -22.6354 -44.8473 242° Southwest  Level Estimated
06:28PM -22.6721 -44.9209 242° Southwest  Level Estimated
06:29PM -22.7088 -44.9945 242° Southwest  Level Estimated
06:30PM -22.7455 -45.0682 242° Southwest  Level Estimated
06:31PM -22.7821 -45.1420 242° Southwest  Level Estimated
06:32PM -22.8187 -45.2157 242° Southwest  Level Estimated
06:33PM -22.8552 -45.2896 242° Southwest  Level Estimated
06:34PM -22.8917 -45.3634 242° Southwest  Level Estimated
06:35PM -22.9282 -45.4373 242° Southwest  Level Estimated
06:36PM -22.9646 -45.5112 242° Southwest  Level Estimated
06:37PM -23.0010 -45.5852 242° Southwest  Level Estimated
06:38PM -23.0374 -45.6592 242° Southwest  Level Estimated
06:39PM -23.0737 -45.7332 242° Southwest  Level Estimated
06:40PM -23.1100 -45.8073 242° Southwest  Level Estimated
06:41PM -23.1463 -45.8815 242° Southwest  Level Estimated
06:42PM -23.1825 -45.9556 242° Southwest  Level Estimated
06:43PM -23.2187 -46.0299 242° Southwest  Level Estimated
06:44PM -23.2549 -46.1041 242° Southwest  Level Estimated
06:45PM -23.2910 -46.1784 242° Southwest  Level Estimated
06:46PM -23.3271 -46.2527 242° Southwest  Level Estimated
06:47PM -23.3632 -46.3271 242° Southwest  Level Estimated
06:48PM -23.3992 -46.4015 242° Southwest  Level Estimated
06:49PM -23.4321 -46.4695 242° Southwest  Level Estimated
06:50PM -23.4321 -46.4695 190° South  Level Estimated
06:51PM -23.4321 -46.4695 350° North  Level Estimated
06:52PM -23.4321 -46.4695 350° North  Level Estimated
06:53PM -23.4321 -46.4695 350° North  Level Estimated
06:54PM -23.4321 -46.4695 350° North  Level Estimated
06:55PM -23.4321 -46.4695 350° North  Level Estimated
06:56PM -23.4321 -46.4695 350° North  Level Estimated
06:57PM -23.4321 -46.4695 350° North  Level Estimated
06:58PM -23.4321 -46.4695 350° North  Level Estimated
06:59PM -23.4321 -46.4695 350° North  Level Estimated
07:00PM -23.4321 -46.4695 350° North  Level Estimated
07:01PM -23.4321 -46.4695 350° North  Level Estimated
07:02PM -23.4321 -46.4695 350° North  Level Estimated
07:03PM -23.4321 -46.4695 350° North  Level Estimated
07:04PM -23.4321 -46.4695 350° North  Level Estimated
07:05PM -23.4321 -46.4695 350° North  Level Estimated